Time;durP1;ratioP1;P1;durP2;ratioP2;P2;SDS_P1;SDS_P2;PMS_P1;PMS_P2;Temp;Humidity;BMP_temperature;BMP_pressure;BME280_temperature;BME280_humidity;BME280_pressure;Samples;Min_cycle;Max_cycle;Signal;HPM_P1;HPM_P2
2023/05/23 00:01:07;;;;;;;11.97;10.10;;;17.50;87.80;;;;;;5092005;28;20457;-68
2023/05/23 00:03:34;;;;;;;11.17;9.97;;;17.50;88.30;;;;;;5091831;28;20896;-68
2023/05/23 00:06:01;;;;;;;13.30;9.20;;;17.50;88.50;;;;;;5090696;28;20439;-68
2023/05/23 00:08:29;;;;;;;10.57;9.43;;;17.50;88.80;;;;;;5092098;28;20435;-68
2023/05/23 00:10:57;;;;;;;10.53;9.50;;;17.40;89.30;;;;;;5091386;28;20439;-67
2023/05/23 00:13:24;;;;;;;11.80;10.57;;;17.40;90.00;;;;;;5092111;28;20478;-67
2023/05/23 00:15:51;;;;;;;16.60;12.00;;;17.40;90.10;;;;;;5091207;28;20471;-67
2023/05/23 00:18:18;;;;;;;11.90;8.30;;;17.40;90.10;;;;;;5091962;28;20470;-67
2023/05/23 00:20:45;;;;;;;10.77;9.57;;;17.40;90.10;;;;;;5091988;28;20431;-68
2023/05/23 00:23:17;;;;;;;13.70;10.07;;;17.40;90.10;;;;;;5095714;28;20531;-67
2023/05/23 00:25:51;;;;;;;12.53;10.03;;;17.50;90.00;;;;;;5095082;28;20430;-68
2023/05/23 00:28:18;;;;;;;14.53;10.63;;;17.50;90.00;;;;;;5095616;28;20447;-67
2023/05/23 00:30:45;;;;;;;13.00;10.43;;;17.50;90.00;;;;;;5095358;28;20427;-67
2023/05/23 00:33:13;;;;;;;12.57;10.50;;;17.50;90.10;;;;;;5095453;28;20922;-67
2023/05/23 00:35:40;;;;;;;12.40;9.03;;;17.50;90.10;;;;;;5094724;28;20488;-68
2023/05/23 00:38:07;;;;;;;12.20;9.90;;;17.50;90.30;;;;;;5095688;28;20435;-67
2023/05/23 00:40:35;;;;;;;12.43;10.80;;;17.50;90.40;;;;;;5095263;28;20435;-68
2023/05/23 00:43:03;;;;;;;19.50;10.77;;;17.50;90.60;;;;;;5095326;28;20776;-68
2023/05/23 00:45:30;;;;;;;12.33;9.03;;;17.50;90.70;;;;;;5094888;28;20500;-68
2023/05/23 00:47:58;;;;;;;12.07;10.60;;;17.50;90.50;;;;;;5095332;28;20438;-67
2023/05/23 00:50:28;;;;;;;12.60;10.10;;;17.50;90.30;;;;;;5095022;28;20779;-68
2023/05/23 00:52:56;;;;;;;10.73;9.47;;;17.50;90.40;;;;;;5095418;28;20995;-68
2023/05/23 00:55:24;;;;;;;13.23;11.00;;;17.40;90.50;;;;;;5094629;28;20559;-68
2023/05/23 00:57:55;;;;;;;11.23;10.03;;;17.40;90.40;;;;;;5094729;28;21045;-68
2023/05/23 01:00:25;;;;;;;12.97;9.57;;;17.40;90.60;;;;;;5095254;28;20443;-67
2023/05/23 01:02:55;;;;;;;13.23;9.27;;;17.40;90.60;;;;;;5094255;28;20435;-68
2023/05/23 01:05:23;;;;;;;14.03;9.80;;;17.40;90.40;;;;;;5094643;28;20435;-68
2023/05/23 01:07:51;;;;;;;13.23;10.10;;;17.40;90.40;;;;;;5094357;28;20492;-68
2023/05/23 01:10:21;;;;;;;13.50;9.37;;;17.40;90.90;;;;;;5094967;28;20462;-67
2023/05/23 01:13:00;;;;;;;11.23;10.03;;;17.40;90.50;;;;;;5094515;28;20431;-68
2023/05/23 01:15:36;;;;;;;13.40;10.20;;;17.30;90.50;;;;;;5094522;28;20517;-67
2023/05/23 01:18:10;;;;;;;12.93;9.83;;;17.30;90.60;;;;;;5094238;28;20952;-68
2023/05/23 01:20:44;;;;;;;13.57;9.20;;;17.30;90.80;;;;;;5094460;28;20763;-68
2023/05/23 01:23:26;;;;;;;11.70;9.00;;;17.30;90.80;;;;;;5093938;28;20439;-68
2023/05/23 01:26:11;;;;;;;13.83;10.47;;;17.30;90.60;;;;;;5094782;28;20435;-68
2023/05/23 01:28:46;;;;;;;11.30;10.10;;;17.30;90.50;;;;;;5094332;28;20479;-67
2023/05/23 01:31:14;;;;;;;14.00;9.00;;;17.40;90.40;;;;;;5094387;28;20453;-67
2023/05/23 01:33:41;;;;;;;13.83;9.90;;;17.30;90.60;;;;;;5093196;28;20493;-68
2023/05/23 01:36:12;;;;;;;13.27;9.53;;;17.30;90.80;;;;;;5094275;28;20844;-68
2023/05/23 01:38:39;;;;;;;12.93;9.67;;;17.20;90.70;;;;;;5093700;28;20438;-68
2023/05/23 01:41:08;;;;;;;13.63;10.50;;;17.10;90.90;;;;;;5093879;28;20869;-68
2023/05/23 01:43:35;;;;;;;11.00;9.80;;;17.10;91.00;;;;;;5094327;28;20485;-68
2023/05/23 01:46:05;;;;;;;12.03;10.07;;;17.20;90.30;;;;;;5093672;28;20431;-68
2023/05/23 01:48:33;;;;;;;13.30;8.83;;;17.10;90.20;;;;;;5094266;28;20431;-67
2023/05/23 01:51:01;;;;;;;11.30;9.23;;;17.10;90.30;;;;;;5093884;28;20925;-68
2023/05/23 01:53:30;;;;;;;10.50;8.80;;;17.10;90.20;;;;;;5093961;28;20443;-68
2023/05/23 01:55:57;;;;;;;10.60;8.03;;;17.10;90.10;;;;;;5093378;28;20485;-68
2023/05/23 01:58:24;;;;;;;11.67;9.87;;;17.10;89.80;;;;;;5093926;28;20447;-68
2023/05/23 02:00:51;;;;;;;13.10;9.30;;;17.20;89.50;;;;;;5093357;28;20959;-67
2023/05/23 02:03:20;;;;;;;9.90;8.10;;;17.20;89.70;;;;;;5093700;28;20438;-67
2023/05/23 02:05:47;;;;;;;11.40;9.10;;;17.20;90.00;;;;;;5093183;28;20450;-67
2023/05/23 02:08:14;;;;;;;10.10;8.60;;;17.20;89.90;;;;;;5093845;28;20803;-68
2023/05/23 02:10:41;;;;;;;12.40;9.80;;;17.10;90.00;;;;;;5092953;28;20463;-68
2023/05/23 02:13:08;;;;;;;11.73;9.80;;;17.10;90.00;;;;;;5093361;28;20854;-68
2023/05/23 02:15:35;;;;;;;11.60;8.00;;;17.00;90.20;;;;;;5092749;28;20535;-68
2023/05/23 02:18:02;;;;;;;13.10;8.40;;;17.00;90.30;;;;;;5093124;28;20481;-68
2023/05/23 02:20:30;;;;;;;12.73;8.80;;;17.00;90.60;;;;;;5093110;28;20467;-68
2023/05/23 02:22:57;;;;;;;11.20;8.70;;;16.90;90.50;;;;;;5093067;28;20443;-67
2023/05/23 02:25:24;;;;;;;10.63;8.37;;;16.90;90.70;;;;;;5093488;28;20439;-67
2023/05/23 02:27:51;;;;;;;10.90;9.70;;;16.90;90.70;;;;;;5092800;28;20439;-67
2023/05/23 02:30:18;;;;;;;9.90;8.90;;;16.90;90.80;;;;;;5092680;28;20439;-67
2023/05/23 02:32:45;;;;;;;9.90;7.10;;;16.90;91.00;;;;;;5092729;28;20435;-67
2023/05/23 02:35:12;;;;;;;13.20;9.37;;;16.90;91.20;;;;;;5093188;28;20864;-67
2023/05/23 02:37:40;;;;;;;11.03;9.50;;;16.80;91.40;;;;;;5092397;28;20448;-67
2023/05/23 02:40:09;;;;;;;11.10;9.40;;;16.80;91.40;;;;;;5093027;28;20926;-67
2023/05/23 02:42:36;;;;;;;12.63;9.33;;;16.80;91.40;;;;;;5092949;28;20440;-67
2023/05/23 02:45:03;;;;;;;9.90;8.93;;;16.80;91.40;;;;;;5091862;28;20435;-68
2023/05/23 02:47:30;;;;;;;12.10;9.10;;;16.80;91.50;;;;;;5092706;28;20951;-67
2023/05/23 02:49:57;;;;;;;13.30;8.50;;;16.80;91.50;;;;;;5093021;28;20492;-68
2023/05/23 02:52:25;;;;;;;15.17;9.70;;;16.80;91.40;;;;;;5092470;28;20439;-68
2023/05/23 02:54:54;;;;;;;11.27;8.83;;;16.80;91.60;;;;;;5092775;28;20566;-67
2023/05/23 02:57:20;;;;;;;11.93;9.60;;;16.80;91.70;;;;;;5092210;28;20458;-67
2023/05/23 02:59:47;;;;;;;11.03;9.73;;;16.70;91.90;;;;;;5092861;28;20439;-68
2023/05/23 03:02:14;;;;;;;12.10;10.27;;;16.70;92.00;;;;;;5092651;28;21229;-67
2023/05/23 03:04:41;;;;;;;12.13;9.27;;;16.60;92.10;;;;;;5092827;28;20439;-67
2023/05/23 03:07:10;;;;;;;11.00;9.17;;;16.60;92.30;;;;;;5092605;28;20435;-67
2023/05/23 03:09:37;;;;;;;12.30;9.07;;;16.60;92.50;;;;;;5092995;28;20435;-68
2023/05/23 03:12:06;;;;;;;9.50;8.50;;;16.50;92.60;;;;;;5092036;28;20954;-68
2023/05/23 03:14:33;;;;;;;13.20;11.23;;;16.50;92.60;;;;;;5092549;28;20474;-67
2023/05/23 03:17:02;;;;;;;12.27;8.50;;;16.50;92.80;;;;;;5091841;28;20462;-68
2023/05/23 03:19:29;;;;;;;12.03;9.87;;;16.40;92.90;;;;;;5092154;28;20431;-67
2023/05/23 03:21:56;;;;;;;15.03;9.17;;;16.40;92.80;;;;;;5092246;28;20439;-67
2023/05/23 03:24:30;;;;;;;12.10;10.13;;;16.40;92.60;;;;;;5092767;28;20501;-68
2023/05/23 03:26:57;;;;;;;13.00;10.10;;;16.40;92.60;;;;;;5092320;28;20907;-68
2023/05/23 03:29:26;;;;;;;12.27;10.70;;;16.40;92.60;;;;;;5092004;28;20470;-68
2023/05/23 03:31:53;;;;;;;11.10;9.73;;;16.40;92.50;;;;;;5092075;28;20435;-68
2023/05/23 03:34:20;;;;;;;11.27;9.67;;;16.40;92.70;;;;;;5092292;28;20535;-67
2023/05/23 03:36:47;;;;;;;12.70;10.00;;;16.40;92.90;;;;;;5091888;28;20961;-68
2023/05/23 03:39:14;;;;;;;12.90;10.30;;;16.40;93.00;;;;;;5092305;28;20512;-67
2023/05/23 03:41:42;;;;;;;11.73;9.13;;;16.40;93.00;;;;;;5091937;28;20439;-67
2023/05/23 03:44:09;;;;;;;11.20;9.17;;;16.40;93.20;;;;;;5092354;28;20443;-68
2023/05/23 03:46:38;;;;;;;15.90;10.60;;;16.40;93.40;;;;;;5091601;28;20493;-68
2023/05/23 03:49:05;;;;;;;11.73;10.40;;;16.40;93.40;;;;;;5092450;28;20439;-68
2023/05/23 03:51:32;;;;;;;11.33;8.30;;;16.40;93.40;;;;;;5091639;28;20782;-67
2023/05/23 03:53:58;;;;;;;16.97;9.77;;;16.40;93.40;;;;;;5091654;28;20521;-67
2023/05/23 03:56:26;;;;;;;10.67;9.57;;;16.40;93.40;;;;;;5093555;28;20435;-68
2023/05/23 03:58:52;;;;;;;11.10;8.40;;;16.40;93.30;;;;;;5096248;28;20481;-68
2023/05/23 04:01:19;;;;;;;10.63;8.33;;;16.30;93.10;;;;;;5095553;28;20439;-68
2023/05/23 04:03:49;;;;;;;12.27;10.10;;;16.30;93.30;;;;;;5096049;28;20496;-67
2023/05/23 04:06:16;;;;;;;12.93;10.17;;;16.20;93.70;;;;;;5095586;28;20435;-68
2023/05/23 04:08:44;;;;;;;11.30;8.50;;;16.20;94.00;;;;;;5096131;28;20484;-67
2023/05/23 04:11:11;;;;;;;11.00;9.80;;;16.20;94.10;;;;;;5095960;28;20521;-68
2023/05/23 04:13:38;;;;;;;10.50;8.47;;;16.20;94.20;;;;;;5095684;28;20439;-67
2023/05/23 04:16:05;;;;;;;14.53;10.37;;;16.20;94.20;;;;;;5095399;28;20817;-67
2023/05/23 04:18:33;;;;;;;11.07;9.87;;;16.30;94.30;;;;;;5096117;28;20442;-68
2023/05/23 04:21:01;;;;;;;12.83;10.37;;;16.40;94.20;;;;;;5095412;28;20522;-68
2023/05/23 04:23:29;;;;;;;11.07;9.63;;;16.40;94.20;;;;;;5096028;28;20446;-68
2023/05/23 04:25:56;;;;;;;12.63;10.93;;;16.40;94.10;;;;;;5095340;28;20435;-68
2023/05/23 04:28:23;;;;;;;11.13;9.00;;;16.50;94.00;;;;;;5095971;28;20446;-67
2023/05/23 04:30:55;;;;;;;10.50;9.20;;;16.50;93.90;;;;;;5095463;28;20439;-67
2023/05/23 04:33:22;;;;;;;14.87;10.40;;;16.60;94.00;;;;;;5095835;28;20434;-67
2023/05/23 04:35:49;;;;;;;11.60;10.00;;;16.70;94.00;;;;;;5095474;28;20543;-67
2023/05/23 04:38:17;;;;;;;13.10;9.30;;;16.70;94.00;;;;;;5095055;28;20526;-68
2023/05/23 04:40:44;;;;;;;16.20;11.00;;;16.80;94.10;;;;;;5095067;28;20447;-68
2023/05/23 04:43:13;;;;;;;11.07;9.80;;;16.90;93.90;;;;;;5095637;28;20431;-67
2023/05/23 04:45:41;;;;;;;15.30;12.63;;;16.90;93.80;;;;;;5095046;28;20441;-68
2023/05/23 04:48:08;;;;;;;13.20;11.37;;;17.00;93.50;;;;;;5095385;28;20435;-68
2023/05/23 04:50:36;;;;;;;13.93;11.60;;;17.10;93.60;;;;;;5095271;28;20435;-68
2023/05/23 04:53:03;;;;;;;15.13;10.80;;;17.10;93.40;;;;;;5095329;28;20996;-67
2023/05/23 04:55:32;;;;;;;13.60;10.90;;;17.20;93.60;;;;;;5094658;28;20482;-68
2023/05/23 04:57:59;;;;;;;11.83;10.00;;;17.30;93.90;;;;;;5095193;28;20442;-68
2023/05/23 05:00:26;;;;;;;13.93;10.80;;;17.30;93.90;;;;;;5094350;28;20790;-67
2023/05/23 05:02:58;;;;;;;14.53;10.50;;;17.40;93.90;;;;;;5095407;28;20446;-68
2023/05/23 05:05:25;;;;;;;18.27;10.40;;;17.40;93.70;;;;;;5094821;28;20511;-68
2023/05/23 05:07:53;;;;;;;15.77;11.63;;;17.50;93.70;;;;;;5094022;28;20439;-67
2023/05/23 05:10:40;;;;;;;15.40;12.83;;;17.60;93.70;;;;;;5094895;28;20435;-67
2023/05/23 05:13:07;;;;;;;13.77;12.20;;;17.70;93.60;;;;;;5094679;28;20457;-67
2023/05/23 05:15:34;;;;;;;13.30;11.83;;;17.80;93.80;;;;;;5094699;28;20551;-68
2023/05/23 05:18:01;;;;;;;12.27;10.60;;;17.80;94.10;;;;;;5095068;28;20817;-67
2023/05/23 05:20:28;;;;;;;12.97;10.20;;;17.90;94.40;;;;;;5095038;28;20435;-67
2023/05/23 05:22:58;;;;;;;13.47;10.50;;;18.00;94.60;;;;;;5094491;28;20435;-68
2023/05/23 05:25:26;;;;;;;11.70;10.27;;;18.10;94.80;;;;;;5094806;28;20435;-68
2023/05/23 05:27:54;;;;;;;11.60;9.67;;;18.20;95.10;;;;;;5094388;28;20956;-68
2023/05/23 05:30:21;;;;;;;14.10;11.20;;;18.30;95.20;;;;;;5095015;28;20443;-68
2023/05/23 05:32:48;;;;;;;26.40;22.10;;;18.40;95.10;;;;;;5094635;28;20496;-68
2023/05/23 05:35:16;;;;;;;39.80;34.50;;;18.60;94.20;;;;;;5094600;28;20474;-68
2023/05/23 05:37:43;;;;;;;25.47;21.20;;;18.70;93.20;;;;;;5094044;28;20439;-68
2023/05/23 05:40:12;;;;;;;17.70;15.80;;;18.80;93.00;;;;;;5094638;28;20440;-67
2023/05/23 05:42:39;;;;;;;17.03;14.33;;;18.90;93.00;;;;;;5094151;28;20447;-68
2023/05/23 05:45:13;;;;;;;15.90;13.20;;;19.00;92.80;;;;;;5094485;28;20477;-68
2023/05/23 05:47:40;;;;;;;15.40;11.20;;;19.30;92.90;;;;;;5093822;28;20454;-68
2023/05/23 05:50:09;;;;;;;15.47;12.63;;;19.50;92.30;;;;;;5094000;28;20435;-68
2023/05/23 05:52:38;;;;;;;14.43;12.50;;;19.60;91.00;;;;;;5093954;28;20568;-68
2023/05/23 05:55:10;;;;;;;14.00;12.00;;;19.80;90.30;;;;;;5094114;28;20972;-68
2023/05/23 05:57:38;;;;;;;14.90;11.00;;;20.00;90.20;;;;;;5093732;28;20432;-67
2023/05/23 06:00:12;;;;;;;13.93;11.00;;;20.00;88.00;;;;;;5087455;28;20439;-68
2023/05/23 06:02:39;;;;;;;12.10;10.80;;;20.10;87.80;;;;;;5092950;28;20443;-68
2023/05/23 06:05:08;;;;;;;15.97;10.27;;;20.20;87.00;;;;;;5092999;28;20439;-68
2023/05/23 06:07:35;;;;;;;14.17;10.70;;;20.20;86.00;;;;;;5093435;28;20475;-68
2023/05/23 06:10:03;;;;;;;12.23;10.43;;;20.20;85.20;;;;;;5093417;28;20774;-68
2023/05/23 06:12:29;;;;;;;14.97;11.50;;;20.20;85.50;;;;;;5092694;28;20431;-68
2023/05/23 06:14:56;;;;;;;12.40;11.10;;;20.30;85.20;;;;;;5093126;28;20521;-68
2023/05/23 06:17:25;;;;;;;12.93;10.50;;;20.30;85.60;;;;;;5093437;28;20525;-68
2023/05/23 06:19:52;;;;;;;14.50;11.70;;;20.50;86.20;;;;;;5093233;28;20784;-68
2023/05/23 06:22:19;;;;;;;11.80;10.60;;;20.60;83.80;;;;;;5086813;28;20483;-69
2023/05/23 06:24:47;;;;;;;13.30;10.60;;;20.70;82.80;;;;;;5093211;28;20440;-67
2023/05/23 06:27:14;;;;;;;13.83;11.13;;;20.80;81.90;;;;;;5093136;28;20443;-68
2023/05/23 06:29:40;;;;;;;14.13;11.13;;;21.00;83.00;;;;;;5092097;28;20439;-68
2023/05/23 06:32:07;;;;;;;17.33;13.07;;;21.30;82.20;;;;;;5092391;28;20438;-68
2023/05/23 06:34:36;;;;;;;15.67;10.57;;;21.50;78.60;;;;;;5092406;28;20465;-68
2023/05/23 06:37:03;;;;;;;14.53;11.03;;;21.60;78.80;;;;;;5093186;28;20535;-68
2023/05/23 06:39:30;;;;;;;14.20;11.63;;;21.80;78.50;;;;;;5093187;28;20443;-69
2023/05/23 06:41:57;;;;;;;11.53;10.33;;;22.00;77.20;;;;;;5092930;28;20522;-68
2023/05/23 06:44:24;;;;;;;11.47;9.60;;;22.10;75.40;;;;;;5088889;28;20534;-68
2023/05/23 06:46:56;;;;;;;12.87;11.20;;;22.20;76.20;;;;;;5093686;28;20434;-68
2023/05/23 06:49:23;;;;;;;15.37;11.00;;;22.40;76.50;;;;;;5093567;28;20431;-68
2023/05/23 06:51:51;;;;;;;13.60;11.13;;;22.50;73.30;;;;;;5093763;28;20466;-68
2023/05/23 06:54:18;;;;;;;11.80;9.90;;;22.70;73.20;;;;;;5093497;28;20458;-68
2023/05/23 06:56:45;;;;;;;16.93;11.33;;;22.80;74.30;;;;;;5093272;28;20514;-69
2023/05/23 06:59:12;;;;;;;12.87;11.40;;;22.90;73.50;;;;;;5090642;28;20518;-68
2023/05/23 07:01:39;;;;;;;12.70;10.07;;;23.10;73.10;;;;;;5090499;28;20455;-68
2023/05/23 07:04:06;;;;;;;11.93;10.63;;;23.30;73.60;;;;;;5090237;28;20814;-68
2023/05/23 07:06:35;;;;;;;13.33;10.50;;;23.60;73.80;;;;;;5088326;28;20477;-68
2023/05/23 07:09:03;;;;;;;14.30;10.23;;;23.80;72.50;;;;;;5083891;28;20892;-68
2023/05/23 07:11:31;;;;;;;13.60;11.47;;;24.10;72.10;;;;;;5083468;28;20471;-68
2023/05/23 07:13:58;;;;;;;14.50;11.13;;;24.30;69.30;;;;;;5087819;28;20459;-68
2023/05/23 07:16:25;;;;;;;14.80;11.60;;;24.60;68.60;;;;;;5088719;28;20578;-68
2023/05/23 07:18:52;;;;;;;13.20;11.80;;;24.90;65.60;;;;;;5088775;28;20887;-69
2023/05/23 07:21:19;;;;;;;14.70;12.33;;;25.10;63.80;;;;;;5084829;28;20975;-68
2023/05/23 07:23:46;;;;;;;13.77;12.37;;;25.40;63.80;;;;;;5088611;28;20448;-69
2023/05/23 07:26:14;;;;;;;13.73;11.47;;;25.70;61.60;;;;;;5086774;28;20432;-68
2023/05/23 07:28:41;;;;;;;16.07;12.93;;;25.90;61.60;;;;;;5088278;28;20463;-69
2023/05/23 07:31:09;;;;;;;15.50;11.23;;;26.00;60.20;;;;;;5087292;28;20494;-69
2023/05/23 07:33:35;;;;;;;15.13;12.03;;;25.90;59.90;;;;;;5086770;28;20431;-68
2023/05/23 07:36:03;;;;;;;13.90;11.77;;;26.00;59.70;;;;;;5087797;28;20514;-68
2023/05/23 07:38:30;;;;;;;13.27;11.83;;;25.90;60.30;;;;;;5088164;28;20517;-69
2023/05/23 07:40:57;;;;;;;14.97;13.37;;;25.80;61.20;;;;;;5083823;28;20439;-69
2023/05/23 07:43:25;;;;;;;13.53;11.67;;;25.70;60.90;;;;;;5087862;28;20523;-68
2023/05/23 07:45:52;;;;;;;17.33;14.90;;;25.70;60.60;;;;;;5087377;28;20510;-68
2023/05/23 07:48:19;;;;;;;19.33;13.97;;;25.50;60.70;;;;;;5085566;28;20466;-68
2023/05/23 07:50:53;;;;;;;18.07;15.63;;;25.40;61.80;;;;;;5086338;28;20440;-69
2023/05/23 07:53:20;;;;;;;20.33;16.27;;;25.20;63.00;;;;;;5088089;28;20474;-68
2023/05/23 07:55:47;;;;;;;21.00;16.37;;;24.90;63.10;;;;;;5085324;28;20864;-68
2023/05/23 07:58:15;;;;;;;18.40;15.80;;;24.70;64.30;;;;;;5085906;28;20499;-69
2023/05/23 08:00:43;;;;;;;21.33;16.20;;;24.50;64.90;;;;;;5087405;28;20967;-69
2023/05/23 08:03:15;;;;;;;19.00;16.70;;;24.10;64.70;;;;;;5087847;28;20439;-69
2023/05/23 08:05:44;;;;;;;21.10;16.30;;;23.80;65.60;;;;;;5086016;28;20489;-69
2023/05/23 08:08:11;;;;;;;23.50;18.77;;;23.50;67.30;;;;;;5086624;28;20446;-68
2023/05/23 08:10:38;;;;;;;25.20;19.00;;;23.20;67.90;;;;;;5084614;28;20894;-69
2023/05/23 08:13:10;;;;;;;19.60;16.40;;;23.00;68.40;;;;;;5088066;28;20434;-68
2023/05/23 08:15:37;;;;;;;21.67;17.70;;;22.80;69.50;;;;;;5086952;28;20949;-68
2023/05/23 08:18:05;;;;;;;22.07;16.80;;;22.70;71.10;;;;;;5084547;28;20478;-68
2023/05/23 08:20:32;;;;;;;20.73;17.23;;;22.80;72.60;;;;;;5083734;28;20905;-68
2023/05/23 08:23:00;;;;;;;24.57;18.07;;;23.00;72.90;;;;;;5087780;28;20466;-68
2023/05/23 08:25:29;;;;;;;26.10;18.00;;;23.40;72.30;;;;;;5084584;28;20440;-68
2023/05/23 08:27:57;;;;;;;25.47;18.30;;;23.80;71.70;;;;;;5087499;28;20852;-68
2023/05/23 08:30:24;;;;;;;26.90;18.53;;;24.00;70.40;;;;;;5087727;28;20427;-68
2023/05/23 08:32:51;;;;;;;24.30;18.80;;;24.20;69.40;;;;;;5085847;28;20439;-68
2023/05/23 08:35:20;;;;;;;21.40;18.27;;;24.30;69.20;;;;;;5085077;28;20431;-68
2023/05/23 08:37:47;;;;;;;22.23;19.43;;;24.30;68.90;;;;;;5086282;28;20565;-69
2023/05/23 08:40:18;;;;;;;23.90;18.63;;;24.20;67.00;;;;;;5084843;28;20842;-69
2023/05/23 08:42:46;;;;;;;25.77;20.73;;;24.00;67.30;;;;;;5086818;28;20438;-68
2023/05/23 08:45:13;;;;;;;25.30;19.47;;;23.70;68.60;;;;;;5088351;28;20430;-68
2023/05/23 08:47:43;;;;;;;26.33;18.73;;;23.50;69.40;;;;;;5091204;28;20463;-68
2023/05/23 08:50:15;;;;;;;23.60;20.17;;;23.30;69.80;;;;;;5087647;28;20773;-68
2023/05/23 08:52:50;;;;;;;23.60;18.10;;;23.40;71.60;;;;;;5090611;28;20466;-69
2023/05/23 08:55:18;;;;;;;27.33;21.03;;;23.80;72.80;;;;;;5088736;28;20470;-68
2023/05/23 08:57:45;;;;;;;25.87;20.83;;;24.10;70.30;;;;;;5090703;28;20482;-68
2023/05/23 09:00:14;;;;;;;26.30;19.10;;;24.30;70.00;;;;;;5090728;28;20435;-69
2023/05/23 09:02:43;;;;;;;22.80;19.73;;;24.30;69.00;;;;;;5087292;28;20427;-68
2023/05/23 09:05:14;;;;;;;25.00;19.50;;;24.30;67.60;;;;;;5086890;28;20517;-68
2023/05/23 09:07:41;;;;;;;21.70;18.30;;;24.40;65.30;;;;;;5090266;28;20431;-68
2023/05/23 09:10:11;;;;;;;24.87;20.27;;;24.50;64.90;;;;;;5086717;28;20438;-68
2023/05/23 09:12:38;;;;;;;22.43;18.00;;;24.60;64.70;;;;;;5088028;28;20455;-68
2023/05/23 09:15:06;;;;;;;21.57;19.27;;;24.70;64.80;;;;;;5091168;28;20530;-68
2023/05/23 09:17:33;;;;;;;25.13;19.67;;;24.80;64.20;;;;;;5087535;28;20489;-68
2023/05/23 09:20:05;;;;;;;29.37;17.90;;;24.90;64.10;;;;;;5087006;28;20435;-68
2023/05/23 09:22:32;;;;;;;25.50;19.07;;;24.90;64.30;;;;;;5088791;28;20428;-69
2023/05/23 09:25:00;;;;;;;24.63;20.27;;;25.00;63.50;;;;;;5092263;28;20473;-68
2023/05/23 09:27:29;;;;;;;23.77;20.07;;;25.10;62.80;;;;;;5087868;28;20485;-68
2023/05/23 09:29:56;;;;;;;26.10;20.10;;;25.30;62.60;;;;;;5090483;28;20489;-69
2023/05/23 09:32:23;;;;;;;28.67;20.10;;;25.50;62.10;;;;;;5090090;28;20524;-69
2023/05/23 09:34:57;;;;;;;22.83;19.20;;;25.60;61.40;;;;;;5087017;28;20431;-68
2023/05/23 09:37:30;;;;;;;28.07;21.17;;;25.50;61.60;;;;;;5089119;28;20813;-68
2023/05/23 09:39:58;;;;;;;25.03;20.70;;;25.50;62.50;;;;;;5088006;28;20491;-68
2023/05/23 09:42:25;;;;;;;23.17;20.20;;;25.60;62.90;;;;;;5085964;28;20460;-68
2023/05/23 09:44:54;;;;;;;21.67;18.60;;;25.90;61.50;;;;;;5093291;28;20463;-68
2023/05/23 09:47:21;;;;;;;22.47;19.80;;;26.20;62.20;;;;;;5086963;28;20474;-68
2023/05/23 09:49:47;;;;;;;22.97;19.13;;;26.80;61.20;;;;;;5090232;28;20506;-68
2023/05/23 09:52:14;;;;;;;26.47;20.10;;;27.10;58.00;;;;;;5086709;28;20483;-69
2023/05/23 09:54:41;;;;;;;22.57;19.20;;;27.00;57.40;;;;;;5092541;28;20842;-68
2023/05/23 09:57:11;;;;;;;26.93;18.20;;;26.70;57.00;;;;;;5088069;28;20561;-69
2023/05/23 09:59:41;;;;;;;22.17;18.40;;;26.40;57.00;;;;;;5087565;28;20511;-69
2023/05/23 10:02:13;;;;;;;19.23;15.93;;;26.30;57.40;;;;;;5089300;28;20920;-68
2023/05/23 10:04:42;;;;;;;21.90;18.07;;;26.40;57.20;;;;;;5086373;28;20450;-68
2023/05/23 10:07:16;;;;;;;20.90;17.83;;;26.80;57.70;;;;;;5087544;28;20531;-68
2023/05/23 10:13:37;;;;;;;;;;;;;;;;;;;;;
2023/05/23 10:16:39;;;;;;;17.97;15.23;;;27.70;56.60;;;;;;5084202;28;20474;-68
2023/05/23 10:19:15;;;;;;;20.90;16.27;;;27.60;54.40;;;;;;5087114;28;20442;-69
2023/05/23 10:21:47;;;;;;;20.70;16.93;;;27.40;56.30;;;;;;5085143;28;20450;-68
2023/05/23 10:24:14;;;;;;;18.70;15.63;;;27.40;56.40;;;;;;5084449;28;20444;-68
2023/05/23 10:26:41;;;;;;;18.90;15.73;;;27.30;55.40;;;;;;5083566;28;20886;-68
2023/05/23 10:29:08;;;;;;;21.50;16.87;;;27.20;53.90;;;;;;5086407;28;20520;-68
2023/05/23 10:31:36;;;;;;;20.30;17.10;;;27.20;54.40;;;;;;5088611;28;20505;-69
2023/05/23 10:34:13;;;;;;;18.20;15.43;;;27.30;55.40;;;;;;5080947;28;20432;-69
2023/05/23 10:36:48;;;;;;;17.13;15.33;;;27.30;55.40;;;;;;5084769;28;20856;-68
2023/05/23 10:39:28;;;;;;;20.43;17.30;;;27.10;55.30;;;;;;5088765;28;20419;-69
2023/05/23 10:42:01;;;;;;;20.27;18.00;;;27.10;54.90;;;;;;5088643;28;20706;-69
2023/05/23 10:44:29;;;;;;;21.30;17.90;;;26.80;54.90;;;;;;5086532;28;20467;-68
2023/05/23 10:47:00;;;;;;;22.50;18.30;;;26.40;55.80;;;;;;5088772;28;20435;-68
2023/05/23 10:49:43;;;;;;;21.73;18.93;;;25.90;56.60;;;;;;5086771;28;20435;-68
2023/05/23 10:52:11;;;;;;;27.70;20.77;;;25.40;57.50;;;;;;5085021;28;20466;-68
2023/05/23 10:54:44;;;;;;;23.87;19.47;;;25.10;58.80;;;;;;5083513;28;20510;-68
2023/05/23 10:57:12;;;;;;;25.30;20.93;;;24.90;59.40;;;;;;5084869;28;20505;-68
2023/05/23 10:59:39;;;;;;;22.17;19.40;;;24.60;59.10;;;;;;5087617;28;20435;-68
2023/05/23 11:02:13;;;;;;;28.93;20.17;;;24.40;59.70;;;;;;5088527;28;20782;-69
2023/05/23 11:04:42;;;;;;;28.73;20.87;;;24.20;61.00;;;;;;5080029;28;20475;-68
2023/05/23 11:07:29;;;;;;;26.93;21.53;;;24.00;62.70;;;;;;5080756;28;20440;-69
2023/05/23 11:10:10;;;;;;;29.43;23.40;;;23.70;66.20;;;;;;5091463;28;20504;-68
2023/05/23 11:12:39;;;;;;;27.57;20.67;;;23.50;67.80;;;;;;5085193;28;20420;-69
2023/05/23 11:15:20;;;;;;;32.93;23.30;;;23.30;69.40;;;;;;5089854;28;20451;-68
2023/05/23 11:17:53;;;;;;;29.57;22.20;;;23.10;70.00;;;;;;5088299;28;20551;-68
2023/05/23 11:20:26;;;;;;;34.53;23.57;;;22.90;70.30;;;;;;5083520;28;20928;-68
2023/05/23 11:23:01;;;;;;;27.57;22.10;;;22.80;70.90;;;;;;5087459;28;20434;-68
2023/05/23 11:25:42;;;;;;;34.53;23.43;;;22.70;71.70;;;;;;5086026;28;20495;-68
2023/05/23 11:28:09;;;;;;;31.00;24.10;;;22.60;72.80;;;;;;5088010;28;20430;-68
2023/05/23 11:30:37;;;;;;;33.97;24.47;;;22.50;72.90;;;;;;5083848;28;20471;-68
2023/05/23 11:33:12;;;;;;;31.80;23.30;;;22.30;73.00;;;;;;5079171;28;20446;-68
2023/05/23 11:35:40;;;;;;;31.03;22.97;;;22.20;73.70;;;;;;5086570;28;20453;-68
2023/05/23 11:38:08;;;;;;;31.93;24.00;;;22.00;74.30;;;;;;5083949;28;20471;-68
2023/05/23 11:40:37;;;;;;;29.00;22.27;;;21.90;74.30;;;;;;5086279;28;20510;-68
2023/05/23 11:43:06;;;;;;;17.67;14.10;;;21.70;75.20;;;;;;5087972;28;20431;-68
2023/05/23 11:45:34;;;;;;;16.43;13.97;;;21.70;72.00;;;;;;5082183;28;20527;-68
2023/05/23 11:48:10;;;;;;;15.67;11.80;;;21.40;73.40;;;;;;5083552;28;20435;-68
2023/05/23 11:50:46;;;;;;;19.90;14.10;;;21.00;74.70;;;;;;5086188;28;20427;-68
2023/05/23 11:53:16;;;;;;;16.47;13.03;;;20.70;76.20;;;;;;5085796;28;20504;-68
2023/05/23 11:55:49;;;;;;;14.60;12.30;;;20.50;77.60;;;;;;5087704;28;20455;-68
2023/05/23 11:58:16;;;;;;;15.13;12.57;;;20.30;78.60;;;;;;5087718;28;20532;-68
2023/05/23 12:00:46;;;;;;;18.90;13.87;;;20.00;80.00;;;;;;5088048;28;20798;-68
2023/05/23 12:03:13;;;;;;;15.80;13.00;;;19.80;82.00;;;;;;5084968;28;20441;-68
2023/05/23 12:05:44;;;;;;;15.57;11.97;;;19.60;83.30;;;;;;5082756;28;20493;-68
2023/05/23 12:08:13;;;;;;;15.77;12.40;;;19.40;84.10;;;;;;5087770;28;20443;-68
2023/05/23 12:10:51;;;;;;;18.90;13.90;;;19.30;85.40;;;;;;5085570;28;20466;-68
2023/05/23 12:13:18;;;;;;;16.77;11.40;;;19.10;87.30;;;;;;5091571;28;20462;-68
2023/05/23 12:15:45;;;;;;;14.73;10.83;;;19.00;88.20;;;;;;5085149;28;20485;-68
2023/05/23 12:18:12;;;;;;;14.57;10.40;;;19.00;90.00;;;;;;5091215;28;20984;-68
2023/05/23 12:20:41;;;;;;;10.87;8.30;;;19.00;90.70;;;;;;5085912;28;20917;-68
2023/05/23 12:23:17;;;;;;;14.20;10.03;;;19.00;90.50;;;;;;5094108;28;20488;-68
2023/05/23 12:25:44;;;;;;;13.80;10.27;;;19.00;90.40;;;;;;5090581;28;20821;-68
2023/05/23 12:28:12;;;;;;;14.30;11.17;;;19.00;90.50;;;;;;5091577;28;20898;-68
2023/05/23 12:30:42;;;;;;;17.00;11.93;;;18.90;91.50;;;;;;5091448;28;20430;-68
2023/05/23 12:33:12;;;;;;;17.00;13.00;;;18.80;92.30;;;;;;5091376;28;20461;-68
2023/05/23 12:35:42;;;;;;;16.53;12.00;;;18.70;92.80;;;;;;5090552;28;20430;-67
2023/05/23 12:38:15;;;;;;;17.73;12.83;;;18.60;93.60;;;;;;5088654;28;20483;-67
2023/05/23 12:40:42;;;;;;;19.47;13.77;;;18.50;94.40;;;;;;5091208;28;20434;-67
2023/05/23 12:43:10;;;;;;;17.17;13.67;;;18.40;95.60;;;;;;5091170;28;20474;-68